Latest Weather Observations for Roseworthy

IDS60801

Issued at 4:02 pm CST Sunday 24 July 2016 (issued every 30 minutes, with the page automatically refreshed every 10 minutes)

About weather observations | Map of weather stations | Latest weather observations for SA | Other Formats
Station Details ID: 023122 Name: ROSEWORTHY AWS Lat: -34.51 Lon: 138.68 Height: 65.0 m
Data from the previous 72 hours. | See also: Recent months at Roseworthy
Date/Time
CST
Temp
°C
App
Temp
°C
Dew
Point
°C
Rel
Hum
%
Delta-T
°C
Wind Press
QNH
hPa
Press
MSL
hPa
Rain since
9am
mm
Dir  Spd
km/h
Gust
km/h
Spd
kts
Gust
kts
24/04:00pm 11.8 1.9 5.0 63 3.1 WNW 46 61 25 33 1009.0 - 5.2
24/03:30pm 12.1 2.7 4.6 60 3.4 WNW 43 61 23 33 1008.6 - 5.2
24/03:00pm 11.7 3.0 6.2 69 2.6 WNW 41 56 22 30 1008.6 1008.7 5.2
24/02:30pm 11.9 2.9 6.2 68 2.7 WNW 43 59 23 32 1008.5 - 5.2
24/02:00pm 12.1 2.2 5.0 62 3.3 WNW 46 65 25 35 1008.5 - 5.2
24/01:57pm 12.2 2.7 5.1 62 3.3 WNW 44 65 24 35 1008.4 - 5.2
24/01:30pm 11.7 2.0 5.6 66 2.8 W 46 61 25 33 1008.3 - 5.2
24/01:00pm 11.3 3.2 7.0 75 2.1 WNW 39 54 21 29 1008.6 - 5.2
24/12:30pm 10.5 2.4 6.8 78 1.8 WNW 39 50 21 27 1008.8 - 5.2
24/12:00pm 10.5 2.9 7.4 81 1.5 NW 37 50 20 27 1009.1 1009.2 5.2
24/11:30am 9.8 3.6 7.7 87 1.0 NW 30 39 16 21 1009.3 - 5.2
24/11:00am 8.4 2.0 6.9 90 0.7 NW 30 39 16 21 1009.5 - 5.2
24/10:30am 8.2 1.1 6.5 89 0.8 WNW 33 50 18 27 1009.8 - 4.0
24/10:26am 8.1 -0.2 6.2 88 0.9 WNW 39 57 21 31 1009.8 - 3.6
24/10:25am 8.2 -0.4 6.3 88 0.9 NW 41 57 22 31 1009.8 - 3.4
24/10:03am 8.6 1.2 6.6 87 0.9 NNW 35 54 19 29 1009.6 - 2.2
24/10:00am 8.6 1.5 6.6 87 0.9 NNW 33 41 18 22 1009.4 - 1.8
24/09:30am 9.4 1.1 6.3 81 1.4 NNW 39 54 21 29 1008.5 - 0.0
24/09:00am 10.0 2.9 6.2 77 1.8 N 33 46 18 25 1008.4 1008.5 0.2
24/08:30am 9.3 2.3 6.0 80 1.5 N 32 44 17 24 1008.6 - 0.2
24/08:00am 8.7 2.1 6.0 83 1.2 N 30 37 16 20 1008.7 - 0.2
24/07:30am 8.3 2.4 5.8 84 1.1 N 26 37 14 20 1009.2 - 0.2
24/07:00am 8.5 2.2 5.6 82 1.3 N 28 35 15 19 1009.7 - 0.2
24/06:30am 8.4 3.2 5.5 82 1.3 N 22 30 12 16 1009.7 - 0.2
24/06:00am 7.9 3.1 5.4 84 1.1 N 20 24 11 13 1009.6 1009.7 0.2
24/05:30am 7.4 2.7 5.2 86 1.0 N 19 22 10 12 1009.6 - 0.2
24/05:00am 7.1 2.3 4.8 85 1.0 N 19 20 10 11 1010.1 - 0.2
24/04:30am 7.0 2.2 4.7 85 1.0 N 19 24 10 13 1010.3 - 0.2
24/04:00am 6.8 2.4 4.8 87 0.9 NNE 17 20 9 11 1010.8 - 0.2
24/03:30am 6.4 1.9 4.4 87 0.9 N 17 20 9 11 1011.1 - 0.2
24/03:00am 6.4 1.9 4.1 85 1.0 N 17 20 9 11 1011.4 1011.5 0.2
24/02:30am 6.5 1.6 4.3 86 0.9 N 19 20 10 11 1011.7 - 0.2
24/02:00am 5.9 1.8 4.1 88 0.8 N 15 19 8 10 1012.4 - 0.2
24/01:30am 5.8 1.7 4.1 89 0.7 NNE 15 17 8 9 1012.8 - 0.2
24/01:00am 6.4 2.3 4.6 88 0.8 N 15 17 8 9 1013.4 - 0.2
24/12:30am 6.9 2.6 5.1 88 0.8 N 17 19 9 10 1013.8 - 0.2
24/12:00am 6.9 2.9 5.1 88 0.8 N 15 19 8 10 1014.4 1014.6 0.0
 
Date/Time
CST
Temp
°C
App
Temp
°C
Dew
Point
°C
Rel
Hum
%
Delta-T
°C
Wind Press
QNH
hPa
Press
MSL
hPa
Rain since
9am
mm
Dir  Spd
km/h
Gust
km/h
Spd
kts
Gust
kts
23/11:30pm 6.4 2.0 4.7 89 0.7 N 17 19 9 10 1014.3 - 0.0
23/11:00pm 5.7 1.9 4.0 89 0.7 N 13 15 7 8 1014.8 - 0.0
23/10:30pm 6.1 2.0 4.4 89 0.7 N 15 17 8 9 1015.0 - 0.0
23/10:00pm 6.3 2.3 4.8 90 0.7 N 15 17 8 9 1015.2 - 0.0
23/09:30pm 6.7 2.8 5.2 90 0.7 N 15 19 8 10 1015.1 - 0.0
23/09:00pm 6.6 3.0 5.1 90 0.7 NNE 13 15 7 8 1015.2 1015.4 0.0
23/08:30pm 6.0 2.3 4.5 90 0.6 N 13 13 7 7 1015.4 - 0.0
23/08:00pm 6.2 2.9 4.7 90 0.7 N 11 13 6 7 1015.5 - 0.0
23/07:30pm 6.4 2.7 4.7 89 0.7 N 13 13 7 7 1015.4 - 0.0
23/07:00pm 6.8 3.6 5.1 89 0.7 N 11 13 6 7 1015.5 - 0.0
23/06:30pm 6.2 3.2 4.2 87 0.9 NW 9 11 5 6 1015.3 - 0.0
23/06:00pm 7.4 4.1 4.7 83 1.2 WSW 11 13 6 7 1014.9 1015.1 0.0
23/05:30pm 8.5 5.3 5.3 80 1.4 WNW 11 11 6 6 1015.0 - 0.0
23/05:00pm 10.4 6.6 5.8 73 2.1 W 15 19 8 10 1014.7 - 0.0
23/04:30pm 10.5 7.3 5.3 70 2.4 W 11 15 6 8 1014.7 - 0.0
23/04:00pm 11.5 7.5 4.7 63 3.1 WNW 15 17 8 9 1014.8 - 0.0
23/03:30pm 11.6 7.0 5.5 66 2.8 W 19 24 10 13 1014.8 - 0.0
23/03:00pm 11.1 6.7 4.6 64 2.9 W 17 24 9 13 1014.7 1014.9 0.0
23/02:30pm 12.2 7.5 5.1 62 3.3 WSW 19 24 10 13 1014.5 - 0.0
23/02:00pm 12.2 7.4 4.4 59 3.5 W 19 22 10 12 1014.5 - 0.0
23/01:30pm 12.6 7.9 5.1 60 3.5 W 19 20 10 11 1014.6 - 0.0
23/01:00pm 11.7 7.2 4.2 60 3.4 SW 17 24 9 13 1014.6 - 0.0
23/12:30pm 12.0 7.5 5.9 66 2.9 SW 19 26 10 14 1014.6 - 0.0
23/12:00pm 11.6 7.4 5.7 67 2.7 SW 17 22 9 12 1014.8 1015.0 0.0
23/11:30am 11.3 7.4 5.4 67 2.7 WSW 15 22 8 12 1015.0 - 0.0
23/11:00am 11.9 7.7 5.8 66 2.9 WSW 17 24 9 13 1015.0 - 0.0
23/10:30am 11.8 7.3 6.1 68 2.7 SW 19 24 10 13 1014.8 - 0.0
23/10:00am 12.0 8.6 7.7 75 2.1 S 15 22 8 12 1014.5 - 0.0
23/09:30am 10.8 8.7 8.2 84 1.3 W 9 13 5 7 1014.3 - 0.0
23/09:00am 9.5 7.3 7.8 89 0.8 WNW 9 13 5 7 1014.0 1014.1 7.4
23/08:30am 9.2 6.9 7.5 89 0.8 NW 9 11 5 6 1013.5 - 7.4
23/08:00am 8.2 5.4 7.0 92 0.6 N 11 13 6 7 1012.9 - 7.2
23/07:30am 8.0 5.9 6.6 91 0.6 NNW 7 9 4 5 1012.5 - 7.2
23/07:00am 7.7 5.1 6.3 91 0.6 NW 9 11 5 6 1012.0 - 7.2
23/06:30am 7.5 4.5 6.1 91 0.6 WNW 11 13 6 7 1011.3 - 7.0
23/06:00am 7.4 4.0 5.7 89 0.8 WNW 13 13 7 7 1010.8 1010.9 7.0
23/05:30am 8.8 4.3 7.1 89 0.8 W 20 24 11 13 1010.5 - 7.0
23/05:00am 7.9 3.8 6.4 90 0.7 WNW 17 20 9 11 1010.1 - 7.0
23/04:30am 7.9 3.8 6.2 89 0.8 W 17 20 9 11 1009.7 - 7.0
23/04:00am 8.2 3.6 6.5 89 0.8 W 20 24 11 13 1009.4 - 7.0
23/03:30am 8.3 3.3 6.3 87 0.9 WNW 22 28 12 15 1009.2 - 7.0
23/03:00am 8.5 3.2 6.6 88 0.9 W 24 30 13 16 1008.7 1008.8 7.0
23/02:30am 8.6 2.1 6.6 87 0.9 W 30 35 16 19 1008.7 - 7.0
23/02:00am 9.0 2.5 6.4 84 1.2 WNW 30 37 16 20 1008.9 - 7.0
23/01:30am 8.8 3.0 6.2 84 1.2 WNW 26 32 14 17 1009.1 - 7.0
23/01:00am 9.2 3.8 6.3 82 1.3 WNW 24 30 13 16 1009.0 - 7.0
23/12:30am 9.3 3.6 6.7 84 1.2 WNW 26 35 14 19 1008.7 - 7.0
23/12:00am 8.8 3.0 6.2 84 1.2 WNW 26 33 14 18 1008.4 1008.5 7.0
 
Date/Time
CST
Temp
°C
App
Temp
°C
Dew
Point
°C
Rel
Hum
%
Delta-T
°C
Wind Press
QNH
hPa
Press
MSL
hPa
Rain since
9am
mm
Dir  Spd
km/h
Gust
km/h
Spd
kts
Gust
kts
22/11:30pm 9.3 2.3 5.9 79 1.6 WNW 32 44 17 24 1007.8 - 6.8
22/11:00pm 9.4 2.4 5.9 79 1.6 WNW 32 41 17 22 1007.3 - 6.8
22/10:30pm 9.9 2.4 6.1 77 1.8 WNW 35 50 19 27 1007.0 - 6.8
22/10:00pm 9.8 2.2 6.0 77 1.8 WNW 35 44 19 24 1006.4 - 6.8
22/09:30pm 8.9 1.9 5.8 81 1.4 WNW 32 41 17 22 1006.2 - 6.8
22/09:00pm 8.1 0.9 5.7 85 1.1 WNW 33 46 18 25 1006.1 1006.3 6.8
22/08:56pm 8.3 1.1 5.8 84 1.1 WNW 33 87 18 47 1006.1 - 6.8
22/08:47pm 8.0 -3.7 5.3 83 1.2 W 56 87 30 47 1006.3 - 6.6
22/08:46pm 8.9 2.7 6.2 83 1.2 W 28 83 15 45 1006.2 - 6.4
22/08:30pm 9.7 3.6 6.4 80 1.5 NW 28 33 15 18 1005.2 - 5.2
22/08:00pm 10.0 3.4 6.2 77 1.8 NW 30 41 16 22 1005.1 - 5.2
22/07:36pm 10.1 3.9 6.3 77 1.8 WNW 28 46 15 25 1004.9 - 5.2
22/07:30pm 10.4 3.2 6.0 74 2.0 WNW 33 46 18 25 1004.8 - 5.2
22/07:01pm 10.9 1.9 6.5 74 2.1 WNW 43 61 23 33 1004.5 - 5.2
22/07:00pm 10.9 1.7 6.5 74 2.1 WNW 44 61 24 33 1004.5 - 5.2
22/06:30pm 11.1 1.5 6.3 72 2.3 WNW 46 65 25 35 1003.9 - 5.2
22/06:22pm 11.1 3.3 6.5 73 2.2 WNW 37 63 20 34 1003.7 - 5.2
22/06:00pm 10.6 3.5 8.0 84 1.3 WNW 35 46 19 25 1003.1 1003.3 5.2
22/05:30pm 10.2 2.2 7.4 83 1.3 WNW 39 52 21 28 1002.6 - 5.2
22/05:06pm 11.0 1.3 7.3 78 1.8 WNW 48 67 26 36 1002.5 - 5.0
22/05:00pm 11.5 2.3 7.8 78 1.8 WNW 46 63 25 34 1002.6 - 5.0
22/04:31pm 11.3 2.6 7.6 78 1.8 WNW 43 61 23 33 1002.1 - 5.0
22/04:30pm 11.3 2.4 7.6 78 1.8 WNW 44 61 24 33 1002.0 - 5.0
22/04:00pm 12.2 3.8 8.9 80 1.7 WNW 43 65 23 35 1001.8 - 4.8
22/03:31pm 12.9 5.8 9.7 81 1.6 W 37 65 20 35 1001.6 - 4.6
22/03:30pm 13.0 6.0 9.8 81 1.6 W 37 52 20 28 1001.4 - 4.6
22/03:00pm 13.6 6.1 10.8 83 1.5 W 41 56 22 30 1001.1 1001.2 4.6
22/02:30pm 11.7 4.9 9.4 86 1.2 WNW 35 46 19 25 1001.0 - 4.4
22/02:00pm 10.7 4.9 9.3 91 0.7 NW 30 39 16 21 1001.0 - 4.0
22/01:50pm 10.5 4.2 8.9 90 0.8 NW 32 41 17 22 1001.6 - 3.6
22/01:30pm 10.5 1.4 8.4 87 1.0 W 46 70 25 38 1001.4 - 2.2
22/01:21pm 12.9 3.0 8.4 74 2.2 W 50 70 27 38 1001.4 - 0.8
22/01:00pm 15.0 6.9 10.2 73 2.5 NW 43 54 23 29 1000.9 - 0.0
22/12:38pm 15.6 7.7 9.5 67 3.2 NW 41 61 22 33 1001.0 - 0.0
22/12:30pm 16.3 9.1 10.6 69 3.0 NW 39 50 21 27 1001.2 - 0.0
22/12:00pm 15.2 9.2 10.8 75 2.4 NNW 33 46 18 25 1001.9 1002.1 0.0
22/11:30am 14.6 9.9 10.8 78 2.0 NNW 26 35 14 19 1002.5 - 0.0
22/11:00am 14.0 9.3 10.8 81 1.7 NNW 26 35 14 19 1002.9 - 0.0
22/10:30am 13.7 9.7 10.3 80 1.8 NNW 22 32 12 17 1003.4 - 0.0
22/10:00am 13.5 9.5 10.5 82 1.6 NNW 22 28 12 15 1003.7 - 0.0
22/09:30am 13.3 9.3 10.5 83 1.5 NNW 22 32 12 17 1004.0 - 0.0
22/09:00am 13.1 9.5 10.5 84 1.4 NNW 20 26 11 14 1004.1 1004.3 0.2
22/08:30am 13.1 9.1 10.6 85 1.3 NNW 22 28 12 15 1004.1 - 0.2
22/08:00am 13.1 9.2 10.8 86 1.2 NNW 22 30 12 16 1004.1 - 0.2
22/07:30am 13.1 9.6 11.0 87 1.1 NNW 20 24 11 13 1004.2 - 0.2
22/07:00am 13.1 9.8 10.8 86 1.2 NNW 19 22 10 12 1004.2 - 0.2
22/06:30am 13.5 10.6 11.0 85 1.3 NNW 17 24 9 13 1004.1 - 0.2
22/06:00am 13.8 10.3 10.8 82 1.6 NW 20 28 11 15 1004.2 1004.4 0.2
22/05:30am 14.6 10.6 10.4 76 2.2 NW 22 30 12 16 1003.5 - 0.0
22/05:00am 15.0 10.5 10.2 73 2.5 NW 24 32 13 17 1003.6 - 0.0
22/04:30am 15.3 10.4 10.1 71 2.7 NW 26 32 14 17 1003.2 - 0.0
22/04:00am 14.9 11.0 10.7 76 2.2 NNW 22 28 12 15 1003.6 - 0.0
22/03:30am 14.9 11.3 10.7 76 2.2 NNW 20 26 11 14 1003.4 - 0.0
22/03:00am 14.8 11.3 11.0 78 2.0 NW 20 24 11 13 1003.8 1004.0 0.0
22/02:30am 14.8 12.0 11.4 80 1.8 NNW 17 20 9 11 1003.8 - 0.0
22/02:00am 15.3 12.2 11.5 78 2.0 NW 19 24 10 13 1004.3 - 0.0
22/01:30am 15.8 13.5 11.6 76 2.3 WNW 15 20 8 11 1004.5 - 0.0
22/01:00am 16.2 13.2 11.8 75 2.4 WNW 19 22 10 12 1004.5 - 0.0
22/12:30am 17.6 14.5 12.3 71 2.9 W 20 26 11 14 1004.5 - 0.0
22/12:00am 18.7 13.0 12.9 69 3.3 WNW 35 48 19 26 1004.8 1005.0 0.0
 
Date/Time
CST
Temp
°C
App
Temp
°C
Dew
Point
°C
Rel
Hum
%
Delta-T
°C
Wind Press
QNH
hPa
Press
MSL
hPa
Rain since
9am
mm
Dir  Spd
km/h
Gust
km/h
Spd
kts
Gust
kts
21/11:49pm 19.5 12.2 12.7 65 3.8 WNW 43 54 23 29 1004.7 - 0.0
21/11:30pm 20.3 13.8 12.8 62 4.3 N 39 50 21 27 1003.5 - 0.0
21/11:00pm 20.4 13.9 12.9 62 4.3 N 39 50 21 27 1003.9 - 0.0
21/10:30pm 19.8 14.4 12.8 64 4.0 N 33 44 18 24 1004.4 - 0.0
21/10:00pm 19.3 15.1 13.5 69 3.3 N 28 35 15 19 1004.8 - 0.0
21/09:30pm 19.5 15.0 13.7 69 3.3 N 30 39 16 21 1005.1 - 0.0
21/09:00pm 19.0 15.2 13.6 71 3.1 N 26 35 14 19 1005.8 1006.0 0.0
21/08:30pm 19.1 15.8 13.9 72 3.0 N 24 30 13 16 1005.9 - 0.0
21/08:00pm 19.5 16.6 13.9 70 3.2 N 22 32 12 17 1005.7 - 0.0
21/07:30pm 19.3 16.4 13.9 71 3.1 N 22 30 12 16 1006.0 - 0.0
21/07:00pm 18.5 16.0 14.0 75 2.6 NNE 20 26 11 14 1006.0 - 0.0
21/06:30pm 19.5 16.9 13.7 69 3.3 N 20 28 11 15 1006.4 - 0.0
21/06:00pm 19.6 16.7 14.0 70 3.2 N 22 28 12 15 1006.5 1006.7 0.0
21/05:30pm 19.2 17.1 14.7 75 2.6 N 19 24 10 13 1006.7 - 0.0
21/05:00pm 19.5 17.1 14.5 73 2.9 N 20 26 11 14 1006.9 - 0.0
21/04:30pm 20.5 16.1 14.2 67 3.7 N 30 39 16 21 1007.1 - 0.0

Other Formats:

Comma delimited format used in spreadsheet applications
http://www.bom.gov.au/fwo/IDS60801/IDS60801.95671.axf

JavaScript Object Notation format (JSON) in row-major order
http://www.bom.gov.au/fwo/IDS60801/IDS60801.95671.json